createdAt,value
2018-07-16T19:25:40.106Z,25.40
2018-07-16T19:28:07.927Z,25.10
2018-07-16T19:30:35.906Z,24.90
2018-07-16T19:33:03.694Z,24.80
2018-07-16T19:35:31.448Z,24.80
2018-07-16T19:37:59.168Z,24.70
2018-07-16T19:40:27.206Z,24.70
2018-07-16T19:42:54.946Z,24.70
2018-07-16T19:45:22.685Z,24.60
2018-07-16T19:47:50.378Z,24.50
2018-07-16T19:50:18.146Z,24.40
2018-07-16T19:52:45.903Z,24.50
2018-07-16T19:55:13.742Z,24.40
2018-07-16T19:57:41.552Z,24.40
2018-07-16T20:00:09.371Z,24.40
2018-07-16T20:05:04.713Z,24.60
2018-07-16T20:07:32.482Z,24.50
2018-07-16T20:10:00.284Z,24.50
2018-07-16T20:12:30.568Z,24.50
2018-07-16T20:14:59.123Z,24.50
2018-07-16T20:17:26.914Z,24.50
2018-07-16T20:19:54.727Z,24.50
2018-07-16T20:22:22.455Z,24.50
2018-07-16T20:24:50.179Z,24.50
2018-07-16T20:27:18.002Z,24.50
2018-07-16T20:29:45.750Z,24.60
2018-07-16T20:32:13.507Z,24.60
2018-07-16T20:34:41.270Z,24.50
2018-07-16T20:37:09.142Z,24.30
2018-07-16T20:39:37.030Z,24.10
2018-07-16T20:42:04.790Z,24.00
2018-07-16T20:44:32.563Z,24.00
2018-07-16T20:47:00.315Z,23.90
2018-07-16T20:49:28.158Z,23.80
2018-07-16T20:51:56.131Z,23.60
2018-07-16T20:54:23.898Z,23.50
2018-07-16T20:56:51.664Z,23.40
2018-07-16T20:59:19.398Z,23.30
2018-07-16T21:01:47.328Z,23.20
2018-07-16T21:04:15.057Z,23.30
2018-07-16T21:06:42.839Z,23.50
2018-07-16T21:09:10.549Z,23.70
2018-07-16T21:11:38.574Z,23.80
2018-07-16T21:14:06.479Z,23.90
2018-07-16T21:16:34.347Z,23.80
2018-07-16T21:19:02.062Z,23.80
2018-07-16T21:21:29.916Z,23.80
2018-07-16T21:23:57.683Z,23.80
2018-07-16T21:26:25.565Z,23.90
2018-07-16T21:28:53.239Z,23.90
2018-07-16T21:31:20.939Z,23.80
2018-07-16T21:33:48.655Z,23.80
2018-07-16T21:36:16.423Z,23.90
2018-07-16T21:38:44.142Z,23.80
2018-07-16T21:41:11.910Z,23.80
2018-07-16T21:43:39.615Z,23.80
2018-07-16T21:46:07.850Z,23.90
2018-07-16T21:48:35.511Z,23.80
2018-07-16T21:51:03.284Z,23.80
2018-07-16T21:53:31.029Z,23.70
2018-07-16T21:55:58.735Z,23.70
2018-07-16T21:58:26.462Z,23.70
2018-07-16T22:00:54.151Z,23.70
2018-07-16T22:03:21.882Z,23.70
2018-07-16T22:05:49.600Z,23.80
2018-07-16T22:08:17.326Z,23.70
2018-07-16T22:10:45.139Z,23.70
2018-07-16T22:13:12.894Z,23.70
2018-07-16T22:15:40.669Z,23.70
2018-07-16T22:18:08.443Z,23.70
2018-07-16T22:23:03.820Z,23.50
2018-07-16T22:25:31.597Z,23.40
2018-07-16T22:27:59.306Z,23.10
2018-07-16T22:30:27.079Z,23.30
2018-07-16T22:32:54.810Z,23.30
2018-07-16T22:35:22.520Z,23.30
2018-07-16T22:37:50.230Z,23.40
2018-07-16T22:40:18.022Z,23.40
2018-07-16T22:42:45.751Z,23.50
2018-07-16T22:45:13.435Z,23.50
2018-07-16T22:47:41.095Z,23.40
2018-07-16T22:50:08.838Z,23.40
2018-07-16T22:52:36.515Z,23.40
2018-07-16T22:55:04.210Z,23.30
2018-07-16T22:57:32.027Z,23.00
2018-07-16T22:59:59.728Z,23.20
2018-07-16T23:02:27.491Z,23.00
2018-07-16T23:04:55.275Z,22.90
2018-07-16T23:07:23.192Z,22.80
2018-07-16T23:09:50.943Z,22.80
2018-07-16T23:12:18.703Z,22.80
2018-07-16T23:14:46.432Z,22.70
2018-07-16T23:17:14.233Z,22.30
2018-07-16T23:19:41.947Z,22.50
2018-07-16T23:22:09.663Z,22.40
2018-07-16T23:24:37.347Z,22.30
2018-07-16T23:27:05.292Z,22.20
2018-07-16T23:29:33.007Z,22.30
2018-07-16T23:32:00.730Z,22.20
2018-07-16T23:34:28.465Z,22.40
2018-07-16T23:36:56.139Z,22.40
2018-07-16T23:39:23.949Z,22.40
2018-07-16T23:41:51.672Z,22.10
2018-07-16T23:44:19.466Z,21.90
2018-07-16T23:46:47.167Z,21.60
2018-07-16T23:49:15.035Z,21.40
2018-07-16T23:51:42.711Z,21.40
2018-07-16T23:54:10.567Z,21.30
2018-07-16T23:56:38.328Z,21.70
2018-07-16T23:59:06.095Z,21.50
